Bar Harbor, ME

5:39 PM EDT on October 20, 2014 (GMT -0400)
Bangor International | Change Station
CLOSE
Current Station
Airport
Location: Bangor,
Elevation: 190 ft
Nearby Weather Stations

Elev 190 ft 44.80 °N, 68.82 °W | Updated 46 minutes ago

Clear
Clear
49 °F
Feels Like 49 °F
N
9
Wind Variable Wind from WSW

Today
High -- | Low -- °F
--% Chance of Precip.
Yesterday
High -- | Low -- °F
Precip. -- in
6:54 AM 5:40 PM
Waning Crescent, 9% visible
Pressure 29.91 in
Visibility 10.0 miles
Clouds Few 20000 ft
Dew Point 24 °F
Humidity 38%
Rainfall 0.00 in
Snow Depth Not available.
UV 0 out of 12
Pollen .30 out of 12
PM2.5 Good
Flu Activity Sporadic
METAR KBGR 202053Z 24008KT 10SM FEW200 09/M04 A2991 RMK AO2 SLP129 6//// T00941044

More Conditions Fewer Conditions

Pressure 29.91 in
Visibility 10.0 miles
Clouds Few 20000 ft
Dew Point 24 °F
Humidity 38%
Rainfall 0.00 in
Snow Depth Not available.
UV 0 out of 12
Pollen .30 out of 12
PM2.5 Good
Flu Activity Sporadic
METAR KBGR 202053Z 24008KT 10SM FEW200 09/M04 A2991 RMK AO2 SLP129 6//// T00941044

More Conditions Fewer Conditions

10-Day Weather Forecast

Almanac

Astronomy

Oct. 20, 2014 Rise Set
Actual Time 6:54 AM EDT 5:40 PM EDT
Civil Twilight 6:24 AM EDT 6:09 PM EDT
Nautical Twilight 5:50 AM EDT 6:43 PM EDT
Astronomical Twilight 5:17 AM EDT 7:17 PM EDT
Moon 3:31 AM EDT 4:07 PM EDT
Length of Visible Light 11h 45m
Length of Day
10h 46m
Waning Crescent, 9% of the Moon is Illuminated
Today
Waning Crescent
Oct 23
New
Oct 30
First Quarter
Nov 6
Full
Nov 14
Last Quarter

Today's Extremes

State Highs State Lows

Community

WunderPhotos

Upload Photos

1,763,525 photos uploaded!

WunderBlogs® & News

Nearby

Air Quality

  Air Quality AQ Index Pollutant
Yesterday Good
OZONE
Yesterday Good
PM2.5
Current Good
PM2.5
Monday Good
OZONE
Monday Good
PM2.5
Tuesday Good
OZONE
Tuesday Good
PM2.5
Wednesday Good
OZONE
Wednesday Good
PM2.5
Thursday Good
OZONE
Thursday Good
PM2.5
Friday Good
OZONE
Friday Good
PM2.5
Saturday Good
OZONE
Saturday Good
PM2.5

Snow Depth

Station Depth Elevation
No new snow has been reported.

Earthquake Activity

City Distance Mag. Time & Date
No recent earthquake activity has been reported nearby.
Minimum magnitude displayed is 2.5.

Coastal Water Temperatures

Place Temperature
Bar Harbor, ME 54.0 °F
Eastport, ME 55.0 °F

Nearby Weather Stations